Time;durP1;ratioP1;P1;durP2;ratioP2;P2;SDS_P1;SDS_P2;PMS_P1;PMS_P2;Temp;Humidity;BMP_temperature;BMP_pressure;BME280_temperature;BME280_humidity;BME280_pressure;Samples;Min_cycle;Max_cycle;Signal;HPM_P1;HPM_P2
2022/06/11 00:03:19;;;;;;;3.50;2.00;;;18.00;99.90;;;;;;8374208;28;20048;-72
2022/06/11 00:07:23;;;;;;;5.18;2.05;;;17.80;99.90;;;;;;8385742;28;20520;-71
2022/06/11 00:11:26;;;;;;;4.55;1.70;;;17.80;99.90;;;;;;8376208;28;20048;-72
2022/06/11 00:15:28;;;;;;;4.70;2.15;;;17.70;99.90;;;;;;8397058;28;20502;-71
2022/06/11 00:19:31;;;;;;;5.45;2.90;;;17.70;99.90;;;;;;8378757;28;20052;-72
2022/06/11 00:23:32;;;;;;;5.18;2.65;;;17.60;99.90;;;;;;8396887;28;20135;-71
2022/06/11 00:27:34;;;;;;;4.97;2.38;;;17.60;99.90;;;;;;8381137;28;20045;-72
2022/06/11 00:31:37;;;;;;;5.32;2.95;;;17.50;99.90;;;;;;8385120;28;20043;-71
2022/06/11 00:35:40;;;;;;;6.43;3.20;;;17.50;99.90;;;;;;8384161;28;20144;-72
2022/06/11 00:39:42;;;;;;;6.35;2.80;;;17.50;99.90;;;;;;8380273;28;20048;-72
2022/06/11 00:43:44;;;;;;;4.25;2.42;;;17.50;99.90;;;;;;8391524;28;20401;-72
2022/06/11 00:47:50;;;;;;;5.40;2.22;;;17.50;99.90;;;;;;8392292;28;20056;-72
2022/06/11 00:52:14;;;;;;;4.00;1.90;;;17.40;99.90;;;;;;8369154;28;20198;-72
2022/06/11 00:56:30;;;;;;;3.42;1.70;;;17.40;99.90;;;;;;8369918;28;20048;-72
2022/06/11 01:00:53;;;;;;;3.90;1.92;;;17.30;99.90;;;;;;8387777;28;20166;-72
2022/06/11 01:05:02;;;;;;;3.80;1.70;;;17.30;99.90;;;;;;8383033;28;20048;-72
2022/06/11 01:09:50;;;;;;;4.10;1.90;;;17.20;99.90;;;;;;8376441;28;20041;-72
2022/06/11 01:14:05;;;;;;;4.32;1.70;;;17.20;99.90;;;;;;8374097;28;20193;-71
2022/06/11 01:18:16;;;;;;;3.45;1.50;;;17.10;99.90;;;;;;8383870;28;20068;-72
2022/06/11 01:22:33;;;;;;;;;;;17.00;99.90;;;;;;8382088;28;19920;-71
2022/06/11 01:26:54;;;;;;;;;;;17.00;99.90;;;;;;8366927;28;21341;-72
2022/06/11 01:31:04;;;;;;;;;;;17.00;99.90;;;;;;8370718;28;20291;-72
2022/06/11 01:35:16;;;;;;;;;;;16.90;99.90;;;;;;8375457;28;20324;-72
2022/06/11 01:39:22;;;;;;;;;;;16.90;99.90;;;;;;8360587;28;20296;-72
2022/06/11 01:43:28;;;;;;;;;;;16.90;99.90;;;;;;8396308;27;19924;-72
2022/06/11 01:47:33;;;;;;;;;;;16.80;99.90;;;;;;8357860;28;19929;-72
2022/06/11 01:51:59;;;;;;;;;;;16.70;99.90;;;;;;8386269;28;20285;-72
2022/06/11 01:56:16;;;;;;;;;;;16.70;99.90;;;;;;8364700;28;19928;-71
2022/06/11 02:00:20;;;;;;;;;;;16.70;99.90;;;;;;8362093;28;19920;-72
2022/06/11 02:04:33;;;;;;;;;;;16.60;99.90;;;;;;8366683;28;19935;-72
2022/06/11 02:08:35;;;;;;;;;;;16.60;99.90;;;;;;8372389;28;19928;-72
2022/06/11 02:12:45;;;;;;;;;;;16.70;99.90;;;;;;8370184;28;19921;-71
2022/06/11 02:16:53;;;;;;;;;;;16.60;99.90;;;;;;8364669;28;19927;-71
2022/06/11 02:21:05;;;;;;;;;;;16.60;99.90;;;;;;8373589;28;19935;-71
2022/06/11 02:25:15;;;;;;;;;;;16.50;99.90;;;;;;8367904;28;20395;-72
2022/06/11 02:29:20;;;;;;;;;;;16.40;99.90;;;;;;8370883;28;20029;-72
2022/06/11 02:33:21;;;;;;;;;;;16.40;99.90;;;;;;8374081;28;19923;-71
2022/06/11 02:37:26;;;;;;;;;;;16.40;99.90;;;;;;8372860;28;19920;-71
2022/06/11 02:41:29;;;;;;;;;;;16.40;99.90;;;;;;8370075;28;19929;-71
2022/06/11 02:45:31;;;;;;;;;;;16.30;99.90;;;;;;8374054;28;20605;-71
2022/06/11 02:49:34;;;;;;;;;;;16.30;99.90;;;;;;8400329;27;19926;-71
2022/06/11 02:53:35;;;;;;;;;;;16.20;99.90;;;;;;8365349;28;20224;-71
2022/06/11 02:57:38;;;;;;;;;;;16.10;99.90;;;;;;8378958;28;19924;-72
2022/06/11 03:01:40;;;;;;;;;;;16.10;99.90;;;;;;8372292;28;19927;-72
2022/06/11 03:05:42;;;;;;;;;;;16.10;99.90;;;;;;8367644;28;20334;-72
2022/06/11 03:09:44;;;;;;;;;;;16.10;99.90;;;;;;8371148;28;19951;-71
2022/06/11 03:13:45;;;;;;;;;;;16.10;99.90;;;;;;8367459;28;19931;-71
2022/06/11 03:17:47;;;;;;;;;;;16.10;99.90;;;;;;8371246;28;19927;-71
2022/06/11 03:21:51;;;;;;;;;;;16.10;99.90;;;;;;8357235;28;19931;-71
2022/06/11 03:25:52;;;;;;;;;;;16.00;99.90;;;;;;8369234;28;19943;-71
2022/06/11 03:29:54;;;;;;;;;;;16.00;99.90;;;;;;8371509;28;20390;-71
2022/06/11 03:33:56;;;;;;;;;;;16.00;99.90;;;;;;8403767;28;19920;-71
2022/06/11 03:37:57;;;;;;;;;;;15.90;99.90;;;;;;8360223;28;20394;-71
2022/06/11 03:41:59;;;;;;;;;;;15.90;99.90;;;;;;8362732;28;20360;-71
2022/06/11 03:46:01;;;;;;;;;;;15.80;99.90;;;;;;8364782;28;19920;-71
2022/06/11 03:50:04;;;;;;;;;;;15.80;99.90;;;;;;8356190;28;19965;-71
2022/06/11 03:54:07;;;;;;;;;;;15.80;99.90;;;;;;8377343;28;20147;-71
2022/06/11 03:58:11;;;;;;;;;;;15.80;99.90;;;;;;8389299;28;19974;-71
2022/06/11 04:02:12;;;;;;;;;;;15.80;99.90;;;;;;8362515;28;19932;-71
2022/06/11 04:06:15;;;;;;;;;;;15.70;99.90;;;;;;8360879;28;19936;-71
2022/06/11 04:10:17;;;;;;;;;;;15.70;99.90;;;;;;8359754;28;19920;-71
2022/06/11 04:14:18;;;;;;;;;;;15.70;99.90;;;;;;8368435;28;19978;-71
2022/06/11 04:18:26;;;;;;;;;;;15.70;99.90;;;;;;8368169;28;19920;-71
2022/06/11 04:22:28;;;;;;;;;;;15.70;99.90;;;;;;8362496;28;19931;-71
2022/06/11 04:26:35;;;;;;;;;;;15.70;99.90;;;;;;8371265;28;19928;-71
2022/06/11 04:30:38;;;;;;;;;;;15.80;99.90;;;;;;8374871;28;19921;-71
2022/06/11 04:34:39;;;;;;;;;;;15.80;99.90;;;;;;8365269;28;19924;-71
2022/06/11 04:38:41;;;;;;;;;;;15.80;99.90;;;;;;8372512;28;19929;-71
2022/06/11 04:42:43;;;;;;;;;;;15.90;99.90;;;;;;8360466;28;20249;-71
2022/06/11 04:46:44;;;;;;;;;;;15.90;99.90;;;;;;8367197;28;19920;-71
2022/06/11 04:50:46;;;;;;;;;;;15.90;99.90;;;;;;8401975;28;19920;-71
2022/06/11 04:54:48;;;;;;;;;;;16.00;99.90;;;;;;8358816;28;19921;-71
2022/06/11 04:58:50;;;;;;;;;;;16.00;99.90;;;;;;8376133;28;19927;-71
2022/06/11 05:02:52;;;;;;;;;;;16.10;99.90;;;;;;8373576;28;20411;-71
2022/06/11 05:06:54;;;;;;;;;;;16.20;99.90;;;;;;8366706;28;19937;-71
2022/06/11 05:10:55;;;;;;;;;;;16.20;99.90;;;;;;8367923;28;19928;-71
2022/06/11 05:14:57;;;;;;;;;;;16.30;99.90;;;;;;8372913;28;20340;-71
2022/06/11 05:18:59;;;;;;;;;;;16.30;99.90;;;;;;8380589;28;19928;-71
2022/06/11 05:23:01;;;;;;;;;;;16.40;99.90;;;;;;8385641;28;19928;-71
2022/06/11 05:27:06;;;;;;;;;;;16.40;99.90;;;;;;8393207;28;20008;-71
2022/06/11 05:31:07;;;;;;;;;;;16.50;99.90;;;;;;8378589;28;19928;-71
2022/06/11 05:35:12;;;;;;;;;;;16.60;99.90;;;;;;8379551;28;19928;-72
2022/06/11 05:39:14;;;;;;;;;;;16.60;99.90;;;;;;8398293;28;19920;-71
2022/06/11 05:43:16;;;;;;;7.50;2.40;;;16.70;99.90;;;;;;8356975;28;19931;-71
2022/06/11 05:47:19;;;;;;;;;;;16.70;99.90;;;;;;8384609;28;19921;-71
2022/06/11 05:51:23;;;;;;;;;;;16.80;99.90;;;;;;8402617;28;20299;-71
2022/06/11 05:55:26;;;;;;;;;;;16.80;99.90;;;;;;8376966;28;19928;-71
2022/06/11 05:59:32;;;;;;;;;;;16.80;99.90;;;;;;8393836;28;19923;-71
2022/06/11 06:03:35;;;;;;;;;;;16.90;99.90;;;;;;8381566;28;21432;-71
2022/06/11 06:07:37;;;;;;;;;;;16.90;99.90;;;;;;8382961;28;20084;-71
2022/06/11 06:11:38;;;;;;;;;;;17.00;99.90;;;;;;8402437;28;19920;-71
2022/06/11 06:15:40;;;;;;;;;;;17.00;99.90;;;;;;8387562;28;19927;-71
2022/06/11 06:19:42;;;;;;;;;;;17.10;99.90;;;;;;8374951;28;19920;-71
2022/06/11 06:23:43;;;;;;;;;;;17.10;99.90;;;;;;8394895;28;19931;-72
2022/06/11 06:27:45;;;;;;;;;;;17.20;99.90;;;;;;8373904;28;19927;-72
2022/06/11 06:31:51;;;;;;;;;;;17.30;99.90;;;;;;8403879;27;19921;-72
2022/06/11 06:35:53;;;;;;;;;;;17.30;99.90;;;;;;8385307;28;20023;-72
2022/06/11 06:39:54;;;;;;;;;;;17.40;99.90;;;;;;8380592;28;19920;-71
2022/06/11 06:43:56;;;;;;;;;;;17.40;99.90;;;;;;8388589;28;19968;-71
2022/06/11 06:47:58;;;;;;;;;;;17.40;99.90;;;;;;8386963;28;19920;-71
2022/06/11 06:51:59;;;;;;;;;;;17.50;99.90;;;;;;8396271;28;20409;-71
2022/06/11 06:56:01;;;;;;;;;;;17.60;99.90;;;;;;8382347;28;19924;-72
2022/06/11 07:00:03;;;;;;;;;;;17.60;99.90;;;;;;8418804;27;19940;-71
2022/06/11 07:04:05;;;;;;;;;;;17.80;99.90;;;;;;8402124;28;20368;-71
2022/06/11 07:08:27;;;;;;;;;;;17.80;99.90;;;;;;8389431;28;19920;-71
2022/06/11 07:12:29;;;;;;;;;;;17.80;99.90;;;;;;8406975;28;19921;-71
2022/06/11 07:16:33;;;;;;;;;;;17.90;99.90;;;;;;8391893;28;20364;-71
2022/06/11 07:20:35;;;;;;;;;;;18.00;99.90;;;;;;8392750;28;19920;-71
2022/06/11 07:24:39;;;;;;;;;;;18.00;99.90;;;;;;8405572;28;20052;-71
2022/06/11 07:28:46;;;;;;;;;;;18.10;99.90;;;;;;8407985;28;19920;-71
2022/06/11 07:32:50;;;;;;;;;;;18.10;99.90;;;;;;8390991;28;19920;-71
2022/06/11 07:36:52;;;;;;;;;;;18.20;99.90;;;;;;8391718;28;19924;-71
2022/06/11 07:40:53;;;;;;;;;;;18.20;99.90;;;;;;8405337;28;19931;-71
2022/06/11 07:44:55;;;;;;;;;;;18.30;99.90;;;;;;8400504;28;19920;-72
2022/06/11 07:48:57;;;;;;;;;;;18.40;99.90;;;;;;8401409;28;19920;-72
2022/06/11 07:52:58;;;;;;;;;;;18.40;99.90;;;;;;8397372;28;19957;-71
2022/06/11 07:57:00;;;;;;;;;;;18.50;99.90;;;;;;8391571;28;19964;-71
2022/06/11 08:01:06;;;;;;;;;;;18.50;99.90;;;;;;8403789;28;19924;-71
2022/06/11 08:05:08;;;;;;;;;;;18.60;99.90;;;;;;8408880;28;19920;-72
2022/06/11 08:09:10;;;;;;;;;;;18.70;99.90;;;;;;8395175;28;19921;-71
2022/06/11 08:13:12;;;;;;;;;;;18.70;99.90;;;;;;8368032;28;19921;-71
2022/06/11 08:17:14;;;;;;;;;;;18.80;99.90;;;;;;8356304;28;19982;-71
2022/06/11 08:21:15;;;;;;;;;;;18.80;99.90;;;;;;8354054;28;20320;-71
2022/06/11 08:25:17;;;;;;;;;;;18.80;99.90;;;;;;8363892;28;19974;-72
2022/06/11 08:29:19;;;;;;;;;;;18.80;99.90;;;;;;8360271;28;22336;-71
2022/06/11 08:33:20;;;;;;;;;;;18.90;99.90;;;;;;8362471;28;19924;-71
2022/06/11 08:37:23;;;;;;;;;;;18.90;99.90;;;;;;8357089;28;19920;-71
2022/06/11 08:41:29;;;;;;;;;;;19.00;99.90;;;;;;8354119;28;20303;-72
2022/06/11 08:45:41;;;;;;;;;;;19.00;99.90;;;;;;8369175;28;21072;-71
2022/06/11 08:49:45;;;;;;;;;;;19.10;99.90;;;;;;8368335;28;20203;-72
2022/06/11 08:53:48;;;;;;;;;;;19.20;99.90;;;;;;8359889;28;20300;-72
2022/06/11 08:58:01;;;;;;;;;;;19.30;99.90;;;;;;8360384;28;20276;-72
2022/06/11 09:02:23;;;;;;;;;;;19.30;99.90;;;;;;8359815;28;21047;-71
2022/06/11 09:06:25;;;;;;;;;;;19.40;99.90;;;;;;8334164;28;20035;-71
2022/06/11 09:10:39;;;;;;;;;;;19.50;99.90;;;;;;8374666;28;19921;-71
2022/06/11 09:14:59;;;;;;;;;;;19.50;99.90;;;;;;8359775;28;19920;-71
2022/06/11 09:19:20;;;;;;;;;;;19.50;99.90;;;;;;8391853;27;19928;-72
2022/06/11 09:23:40;;;;;;;;;;;19.50;99.90;;;;;;8357041;28;19974;-71
2022/06/11 09:27:48;;;;;;;;;;;19.60;99.90;;;;;;8360000;28;19920;-71
2022/06/11 09:32:19;;;;;;;;;;;19.60;99.90;;;;;;8361681;28;19921;-71
2022/06/11 09:36:25;;;;;;;;;;;19.60;99.90;;;;;;8346318;28;19927;-71
2022/06/11 09:40:44;;;;;;;;;;;19.70;99.90;;;;;;8349325;28;19932;-71
2022/06/11 09:44:57;;;;;;;;;;;19.80;99.90;;;;;;8349479;28;19928;-71
2022/06/11 09:49:14;;;;;;;;;;;19.80;99.90;;;;;;8362910;28;19920;-71
2022/06/11 09:53:34;;;;;;;;;;;19.80;99.90;;;;;;8368085;28;19966;-71
2022/06/11 09:57:38;;;;;;;;;;;19.80;99.90;;;;;;8353436;28;19920;-71
2022/06/11 10:01:45;;;;;;;;;;;19.80;99.90;;;;;;8390795;27;19925;-71
2022/06/11 10:05:47;;;;;;;;;;;19.90;99.90;;;;;;8360425;28;19928;-71
2022/06/11 10:09:54;;;;;;;;;;;20.00;99.90;;;;;;8355480;28;19929;-71
2022/06/11 10:18:30;;;;;;;;;;;20.30;99.90;;;;;;8349063;28;19928;-71
2022/06/11 10:22:35;;;;;;;;;;;20.30;99.90;;;;;;8359751;28;19927;-71
2022/06/11 10:26:50;;;;;;;;;;;20.30;99.90;;;;;;8355876;28;19928;-71
2022/06/11 10:30:52;;;;;;;;;;;20.40;99.90;;;;;;8386916;27;19928;-71
2022/06/11 10:35:12;;;;;;;;;;;20.40;99.90;;;;;;8354124;28;19991;-71
2022/06/11 10:39:20;;;;;;;;;;;20.50;99.90;;;;;;8355604;28;19925;-71
2022/06/11 10:43:32;;;;;;;;;;;20.60;99.90;;;;;;8356999;28;20399;-71
2022/06/11 10:47:35;;;;;;;;;;;20.60;99.90;;;;;;8356065;28;19974;-71
2022/06/11 10:51:38;;;;;;;;;;;20.70;99.90;;;;;;8387488;27;19924;-71
2022/06/11 10:55:49;;;;;;;;;;;20.80;99.90;;;;;;8355072;28;19928;-71
2022/06/11 10:59:58;;;;;;;;;;;20.80;99.90;;;;;;8357036;28;19995;-71
2022/06/11 11:04:19;;;;;;;;;;;20.90;99.90;;;;;;8387541;27;20074;-71
2022/06/11 11:08:20;;;;;;;;;;;21.00;99.90;;;;;;8355442;28;19925;-71
2022/06/11 11:12:25;;;;;;;;;;;20.90;99.90;;;;;;8361760;28;19921;-71
2022/06/11 11:16:29;;;;;;;;;;;21.10;99.90;;;;;;8355484;28;19924;-71
2022/06/11 11:20:40;;;;;;;;;;;21.20;99.90;;;;;;8357404;28;20020;-71
2022/06/11 11:24:44;;;;;;;;;;;21.20;99.90;;;;;;8354668;28;19962;-71
2022/06/11 11:29:00;;;;;;;;;;;21.30;99.90;;;;;;8385322;28;19939;-70
2022/06/11 11:33:20;;;;;;;;;;;21.30;99.90;;;;;;8359124;28;19935;-71
2022/06/11 11:37:30;;;;;;;;;;;21.40;99.90;;;;;;8360956;28;19928;-71
2022/06/11 11:41:33;;;;;;;;;;;21.40;99.90;;;;;;8354263;28;19925;-70
2022/06/11 11:45:46;;;;;;;;;;;21.40;99.90;;;;;;8351992;28;19932;-71
2022/06/11 11:49:51;;;;;;;;;;;21.40;99.90;;;;;;8355079;28;19935;-71
2022/06/11 11:54:04;;;;;;;;;;;21.40;99.90;;;;;;8355925;28;24072;-71
2022/06/11 11:58:13;;;;;;;;;;;21.40;99.90;;;;;;8358903;28;19931;-71
2022/06/11 12:02:19;;;;;;;;;;;21.40;99.90;;;;;;8378358;28;19961;-71
2022/06/11 12:06:29;;;;;;;;;;;21.40;99.90;;;;;;8361217;28;19937;-71
2022/06/11 12:10:35;;;;;;;;;;;21.40;99.90;;;;;;8368650;28;19935;-71
2022/06/11 12:14:38;;;;;;;;;;;21.30;99.90;;;;;;8362878;28;19927;-70
2022/06/11 12:18:45;;;;;;;;;;;21.40;99.90;;;;;;8361394;28;19929;-71
2022/06/11 12:22:51;;;;;;;;;;;21.50;99.90;;;;;;8358655;28;19931;-71
2022/06/11 12:26:56;;;;;;;;;;;21.50;99.90;;;;;;8358182;28;20373;-71
2022/06/11 12:30:58;;;;;;;;;;;21.60;99.90;;;;;;8365946;28;20342;-71
2022/06/11 12:35:01;;;;;;;;;;;21.60;99.90;;;;;;8365658;28;20575;-71
2022/06/11 12:39:12;;;;;;;;;;;21.70;99.90;;;;;;8359108;28;19998;-71
2022/06/11 12:43:13;;;;;;;;;;;21.60;99.90;;;;;;8370586;28;20311;-71
2022/06/11 12:47:24;;;;;;;;;;;21.40;99.90;;;;;;8358905;28;19929;-71
2022/06/11 12:51:37;;;;;;;;;;;21.50;99.90;;;;;;8389304;27;19939;-71
2022/06/11 12:55:41;;;;;;;;;;;21.50;99.90;;;;;;8357392;28;19936;-71
2022/06/11 12:59:55;;;;;;;;;;;21.50;99.90;;;;;;8358969;28;20272;-71
2022/06/11 13:04:06;;;;;;;;;;;21.40;99.90;;;;;;8356245;28;20225;-71
2022/06/11 13:13:32;;;;;;;;;;;21.60;99.90;;;;;;8358092;28;19931;-71
2022/06/11 13:17:46;;;;;;;;;;;21.60;99.90;;;;;;8358966;28;19928;-71
2022/06/11 13:21:48;;;;;;;;;;;21.60;99.90;;;;;;8357803;28;19947;-71
2022/06/11 13:26:08;;;;;;;;;;;21.70;99.90;;;;;;8358338;28;20399;-71
2022/06/11 13:30:10;;;;;;;;;;;21.60;99.90;;;;;;8360274;28;19924;-72
2022/06/11 13:34:21;;;;;;;;;;;21.70;99.90;;;;;;8359968;28;19928;-71
2022/06/11 13:38:38;;;;;;;8.10;2.15;;;21.60;99.90;;;;;;8389047;27;19927;-71
2022/06/11 13:43:13;;;;;;;9.70;1.92;;;21.70;99.90;;;;;;8349884;28;20053;-71
2022/06/11 13:47:17;;;;;;;;;;;21.70;99.90;;;;;;8325070;28;20079;-71
2022/06/11 13:51:20;;;;;;;;;;;21.70;99.90;;;;;;8316079;28;19996;-71
2022/06/11 13:55:26;;;;;;;;;;;21.70;99.90;;;;;;8322582;28;19940;-71
2022/06/11 13:59:46;;;;;;;;;;;21.70;99.90;;;;;;8323871;28;19925;-71
2022/06/11 14:03:56;;;;;;;;;;;21.70;99.90;;;;;;8320072;28;19921;-71
2022/06/11 14:07:58;;;;;;;;;;;21.80;99.90;;;;;;8320759;28;19921;-71
2022/06/11 14:12:28;;;;;;;;;;;21.80;99.90;;;;;;8322062;28;20011;-71
2022/06/11 14:16:33;;;;;;;;;;;21.90;99.90;;;;;;8308018;28;19970;-71
2022/06/11 14:20:35;;;;;;;;;;;21.90;99.90;;;;;;8325853;28;19928;-71
2022/06/11 14:24:42;;;;;;;;;;;22.00;99.90;;;;;;8329251;28;20016;-71
2022/06/11 14:28:45;;;;;;;;;;;22.10;99.90;;;;;;8328489;28;20440;-71
2022/06/11 14:32:59;;;;;;;;;;;22.20;99.90;;;;;;8322680;28;20283;-71
2022/06/11 14:37:21;;;;;;;;;;;22.20;99.90;;;;;;8321340;28;19929;-71
2022/06/11 14:41:43;;;;;;;;;;;22.30;99.90;;;;;;8293486;28;19952;-72
2022/06/11 14:45:44;;;;;;;;;;;22.30;99.90;;;;;;8334291;28;25063;-71
2022/06/11 14:49:48;;;;;;;;;;;22.30;99.90;;;;;;8355903;28;19920;-71
2022/06/11 14:54:00;;;;;;;;;;;22.30;99.90;;;;;;8349316;28;19926;-71
2022/06/11 14:58:18;;;;;;;;;;;22.40;99.90;;;;;;8365395;28;21449;-72
2022/06/11 15:02:26;;;;;;;;;;;22.40;99.90;;;;;;8356162;28;19925;-72
2022/06/11 15:06:43;;;;;;;;;;;22.40;99.90;;;;;;8356806;28;20329;-71
2022/06/11 15:10:45;;;;;;;;;;;22.40;99.90;;;;;;8353025;28;19921;-71
2022/06/11 15:14:53;;;;;;;;;;;22.40;99.90;;;;;;8355454;28;20369;-71
2022/06/11 15:18:57;;;;;;;;;;;22.30;99.90;;;;;;8362594;28;19932;-72
2022/06/11 15:23:03;;;;;;;;;;;22.30;99.90;;;;;;8361098;28;19928;-71
2022/06/11 15:27:06;;;;;;;;;;;22.30;99.90;;;;;;8390895;27;20328;-71
2022/06/11 15:31:11;;;;;;;;;;;22.30;99.90;;;;;;8358354;28;19928;-71
2022/06/11 15:35:33;;;;;;;;;;;22.30;99.90;;;;;;8356313;28;20039;-71
2022/06/11 15:39:37;;;;;;;;;;;22.20;99.90;;;;;;8351906;28;19928;-71
2022/06/11 15:43:40;;;;;;;;;;;22.30;99.90;;;;;;8354127;28;19925;-71
2022/06/11 15:47:56;;;;;;;;;;;22.40;99.90;;;;;;8349972;28;19935;-71
2022/06/11 15:52:12;;;;;;;;;;;22.50;99.90;;;;;;8351498;28;19921;-71
2022/06/11 15:56:26;;;;;;;;;;;22.80;99.90;;;;;;8349761;28;19944;-71
2022/06/11 16:00:46;;;;;;;;;;;23.10;99.90;;;;;;8353395;28;19920;-71
2022/06/11 16:04:50;;;;;;;;;;;23.40;99.90;;;;;;8353685;28;20872;-71
2022/06/11 16:08:58;;;;;;;5.30;1.75;;;23.80;99.90;;;;;;8353622;28;19961;-72
2022/06/11 16:13:00;;;;;;;5.03;1.38;;;24.40;99.90;;;;;;8349368;28;20048;-71
2022/06/11 16:17:06;;;;;;;5.85;1.50;;;24.90;99.90;;;;;;8371765;28;20140;-71
2022/06/11 16:21:19;;;;;;;;;;;25.20;99.90;;;;;;8358670;28;20055;-71
2022/06/11 16:25:39;;;;;;;;;;;25.60;99.90;;;;;;8388442;27;19920;-71
2022/06/11 16:29:44;;;;;;;;;;;26.00;99.90;;;;;;8362170;28;19924;-72
2022/06/11 16:33:48;;;;;;;;;;;26.30;99.90;;;;;;8358867;28;20368;-71
2022/06/11 16:43:04;;;;;;;;;;;26.90;99.90;;;;;;8355300;28;19972;-72
2022/06/11 16:47:13;;;;;;;;;;;27.10;99.90;;;;;;8357709;28;20399;-72
2022/06/11 16:56:38;;;;;;;;;;;27.30;99.90;;;;;;8358661;28;19934;-72
2022/06/11 17:00:41;;;;;;;;;;;27.40;99.90;;;;;;8358699;28;19924;-71
2022/06/11 17:04:56;;;;;;;;;;;27.50;99.90;;;;;;8358435;28;20005;-71
2022/06/11 17:08:58;;;;;;;;;;;27.60;99.90;;;;;;8356027;28;19920;-71
2022/06/11 17:13:01;;;;;;;;;;;27.50;99.90;;;;;;8355256;28;19921;-71
2022/06/11 17:17:05;;;;;;;;;;;27.30;97.00;;;;;;8368983;28;19960;-71
2022/06/11 17:21:23;;;;;;;;;;;27.00;97.40;;;;;;8384173;28;19932;-72
2022/06/11 17:25:25;;;;;;;;;;;27.00;99.80;;;;;;8360124;28;19940;-72
2022/06/11 17:29:27;;;;;;;;;;;26.90;99.90;;;;;;8388236;27;20280;-71
2022/06/11 17:33:28;;;;;;;;;;;26.50;99.80;;;;;;8348397;28;19932;-72
2022/06/11 17:37:32;;;;;;;;;;;26.20;99.90;;;;;;8353945;28;19975;-72
2022/06/11 17:41:33;;;;;;;;;;;25.70;99.90;;;;;;8355557;28;19927;-72
2022/06/11 17:45:35;;;;;;;;;;;25.30;99.90;;;;;;8354491;28;20371;-72
2022/06/11 17:49:42;;;;;;;;;;;24.90;99.90;;;;;;8359217;28;20456;-72
2022/06/11 17:53:44;;;;;;;;;;;24.50;99.10;;;;;;8352176;28;20139;-72
2022/06/11 17:57:46;;;;;;;;;;;24.30;99.40;;;;;;8362509;28;19929;-72
2022/06/11 18:01:50;;;;;;;;;;;24.20;99.30;;;;;;8356608;28;20725;-71
2022/06/11 18:05:52;;;;;;;;;;;24.00;99.40;;;;;;8356966;28;19928;-72
2022/06/11 18:09:54;;;;;;;;;;;23.90;99.80;;;;;;8354449;28;19951;-72
2022/06/11 18:13:55;;;;;;;;;;;23.70;99.30;;;;;;8351857;28;19931;-72
2022/06/11 18:17:58;;;;;;;;;;;23.70;99.70;;;;;;8355942;28;19920;-72
2022/06/11 18:26:20;;;;;;;;;;;23.50;99.40;;;;;;8353060;28;20238;-71
2022/06/11 18:30:30;;;;;;;;;;;23.40;99.30;;;;;;8353754;28;19928;-72
2022/06/11 18:34:32;;;;;;;2.70;0.82;;;23.30;99.00;;;;;;8371209;28;19943;-72
2022/06/11 18:38:33;;;;;;;3.53;0.98;;;23.20;98.80;;;;;;8352529;28;20493;-72
2022/06/11 18:42:36;;;;;;;3.33;1.00;;;23.10;99.20;;;;;;8349117;28;20067;-72
2022/06/11 18:46:38;;;;;;;3.05;0.90;;;23.00;99.10;;;;;;8362600;28;20111;-72
2022/06/11 18:50:40;;;;;;;2.75;0.73;;;22.90;99.20;;;;;;8353588;28;20040;-72
2022/06/11 18:54:42;;;;;;;2.45;0.95;;;22.80;99.40;;;;;;8351549;28;20041;-72
2022/06/11 19:04:00;;;;;;;;;;;22.70;99.10;;;;;;8352772;28;20040;-72
2022/06/11 19:08:02;;;;;;;;;;;22.50;99.10;;;;;;8352687;28;20399;-72
2022/06/11 19:12:04;;;;;;;;;;;22.40;99.30;;;;;;8349281;28;19921;-72
2022/06/11 19:16:06;;;;;;;;;;;22.40;99.50;;;;;;8353628;28;19928;-72
2022/06/11 19:20:09;;;;;;;;;;;22.30;99.80;;;;;;8354245;28;20496;-72
2022/06/11 19:24:11;;;;;;;3.05;0.85;;;22.30;99.90;;;;;;8383387;27;19924;-72
2022/06/11 19:28:14;;;;;;;5.00;1.00;;;22.30;99.90;;;;;;8380032;28;20045;-72
2022/06/11 19:32:16;;;;;;;;;;;22.20;99.90;;;;;;8354953;28;20045;-72
2022/06/11 19:36:21;;;;;;;;;;;22.20;99.90;;;;;;8381387;28;19920;-72
2022/06/11 19:40:25;;;;;;;;;;;22.10;99.90;;;;;;8350896;28;19936;-72
2022/06/11 19:44:28;;;;;;;;;;;22.00;99.90;;;;;;8355863;28;19933;-72
2022/06/11 19:48:31;;;;;;;;;;;21.90;99.90;;;;;;8351443;28;19925;-72
2022/06/11 19:52:34;;;;;;;;;;;21.80;99.90;;;;;;8356932;28;19970;-72
2022/06/11 19:56:36;;;;;;;;;;;21.70;99.90;;;;;;8359241;28;19920;-72
2022/06/11 20:00:38;;;;;;;;;;;21.40;99.90;;;;;;8364381;28;19921;-72
2022/06/11 20:04:39;;;;;;;;;;;21.30;99.90;;;;;;8373054;28;19991;-72
2022/06/11 20:08:42;;;;;;;;;;;21.10;99.90;;;;;;8362011;28;20284;-72
2022/06/11 20:12:44;;;;;;;;;;;21.00;99.90;;;;;;8360326;28;20237;-72
2022/06/11 20:16:47;;;;;;;;;;;20.90;99.90;;;;;;8356960;28;20288;-72
2022/06/11 20:20:51;;;;;;;;;;;20.80;99.90;;;;;;8356515;28;19967;-72
2022/06/11 20:24:53;;;;;;;;;;;20.60;99.90;;;;;;8363200;28;19961;-72
2022/06/11 20:28:54;;;;;;;;;;;20.60;99.90;;;;;;8390269;27;19920;-72
2022/06/11 20:32:57;;;;;;;;;;;20.50;99.90;;;;;;8373208;28;19940;-72
2022/06/11 20:36:59;;;;;;;;;;;20.40;99.90;;;;;;8372100;28;19920;-72
2022/06/11 20:41:01;;;;;;;;;;;20.30;99.90;;;;;;8372206;28;19925;-72
2022/06/11 20:45:04;;;;;;;;;;;20.20;99.90;;;;;;8358123;28;19920;-72
2022/06/11 20:49:41;;;;;;;;;;;20.10;99.90;;;;;;8357630;28;19932;-73
2022/06/11 20:53:29;;;;;;;;;;;19.90;99.90;;;;;;8356639;28;19925;-72
2022/06/11 20:57:31;;;;;;;;;;;19.70;99.90;;;;;;8354993;28;19928;-72
2022/06/11 21:01:32;;;;;;;;;;;19.60;99.90;;;;;;8370572;28;19920;-72
2022/06/11 21:05:35;;;;;;;;;;;19.50;99.90;;;;;;8386856;28;19942;-72
2022/06/11 21:09:36;;;;;;;;;;;19.50;99.90;;;;;;8413520;28;19925;-72
2022/06/11 21:13:38;;;;;;;;;;;19.40;99.90;;;;;;8420527;28;19924;-72
2022/06/11 21:17:41;;;;;;;;;;;19.30;99.90;;;;;;8388063;28;19920;-72
2022/06/11 21:22:04;;;;;;;;;;;19.10;99.90;;;;;;8393868;28;19920;-72
2022/06/11 21:26:06;;;;;;;;;;;19.10;99.90;;;;;;8386607;28;19920;-72
2022/06/11 21:30:09;;;;;;;;;;;19.00;99.90;;;;;;8389612;28;19924;-72
2022/06/11 21:39:17;;;;;;;;;;;18.80;99.90;;;;;;8395397;28;19982;-72
2022/06/11 21:43:18;;;;;;;;;;;18.70;99.90;;;;;;8390504;28;19924;-72
2022/06/11 21:47:20;;;;;;;;;;;18.60;99.90;;;;;;8336304;28;1752654;-72
2022/06/11 21:51:22;;;;;;;;;;;18.50;99.90;;;;;;8393092;28;19935;-72
2022/06/11 21:55:24;;;;;;;;;;;18.40;99.90;;;;;;8398956;28;19925;-72
2022/06/11 21:59:26;;;;;;;;;;;18.30;99.90;;;;;;8400546;28;19971;-72
2022/06/11 22:08:31;;;;;;;;;;;18.10;99.90;;;;;;8400220;28;19927;-72
2022/06/11 22:12:33;;;;;;;;;;;17.90;99.90;;;;;;8397156;28;19925;-72
2022/06/11 22:16:35;;;;;;;;;;;17.80;99.90;;;;;;8402159;28;20392;-72
2022/06/11 22:20:37;;;;;;;;;;;17.70;99.90;;;;;;8403041;28;19939;-72
2022/06/11 22:24:40;;;;;;;;;;;17.60;99.90;;;;;;8391451;28;19932;-72
2022/06/11 22:28:42;;;;;;;;;;;17.50;99.90;;;;;;8414464;28;19924;-72
2022/06/11 22:32:44;;;;;;;;;;;17.50;99.90;;;;;;8394084;28;19928;-72
2022/06/11 22:36:47;;;;;;;;;;;17.40;99.90;;;;;;8397845;28;19924;-72
2022/06/11 22:40:48;;;;;;;;;;;17.30;99.90;;;;;;8389610;28;19935;-72
2022/06/11 22:45:15;;;;;;;;;;;17.30;99.90;;;;;;8405489;28;19932;-72
2022/06/11 22:49:17;;;;;;;;;;;17.20;99.90;;;;;;8389253;28;19931;-72
2022/06/11 22:53:19;;;;;;;;;;;17.10;99.90;;;;;;8406652;28;19924;-72
2022/06/11 22:57:20;;;;;;;;;;;17.00;99.90;;;;;;8395331;28;19947;-72
2022/06/11 23:01:23;;;;;;;;;;;17.00;99.90;;;;;;8400221;28;20360;-72
2022/06/11 23:05:24;;;;;;;;;;;16.90;99.90;;;;;;8381564;28;20323;-72
2022/06/11 23:09:29;;;;;;;;;;;16.90;99.90;;;;;;8380409;28;20410;-72
2022/06/11 23:13:31;;;;;;;;;;;16.80;99.90;;;;;;8393531;28;19925;-72
2022/06/11 23:17:32;;;;;;;;;;;16.70;99.90;;;;;;8391554;28;19955;-72
2022/06/11 23:21:34;;;;;;;;;;;16.60;99.90;;;;;;8395183;28;19932;-72
2022/06/11 23:25:37;;;;;;;;;;;16.60;99.90;;;;;;8391738;28;19947;-72
2022/06/11 23:29:39;;;;;;;;;;;16.50;99.90;;;;;;8401789;28;19924;-71
2022/06/11 23:33:41;;;;;;;;;;;16.50;99.90;;;;;;8391833;28;19969;-71
2022/06/11 23:37:43;;;;;;;;;;;16.40;99.90;;;;;;8385610;28;19929;-71
2022/06/11 23:41:47;;;;;;;;;;;16.30;99.90;;;;;;8392720;28;19924;-72
2022/06/11 23:45:51;;;;;;;;;;;16.20;99.90;;;;;;8371633;28;19979;-72
2022/06/11 23:49:52;;;;;;;;;;;16.00;99.90;;;;;;8376657;28;20036;-72
2022/06/11 23:53:57;;;;;;;;;;;15.90;99.90;;;;;;8359486;28;19936;-72
2022/06/11 23:57:59;;;;;;;;;;;15.90;99.90;;;;;;8341909;28;19932;-71
